Simferopol, Ukraine
Current Conditions -  °F | °C
As of 3:30 PM on Thursday 23 Oct 2014 (Local Time) from URFF Reporting Station
Clear Clear  
Wind Chill: 73°   Ceiling: Unl
Heat Index: 73°   Visibility: 6mi
Dew Point: 54°   Wind: 13mph
Humidity: 50%   Direction: 60°ENE
Pressure: 29.8"   Gusts: NA
Location:  44.95°N, 34.1°E
Report Text: URFF 231230Z 06006MPS CAVOK 23/12 Q1009 01010065 NOSIG
Loading
Personal Weather Stations






























Interactive Weather Map
Tropical Storm Tracking
New forecast layout! Learn more

10-Day Weather Forecast

Advertisements
Track Severe Weather on mobile